createdAt,value
2022-12-12T00:01:37.507Z,96233.90
2022-12-12T00:04:06.108Z,96236.63
2022-12-12T00:06:34.187Z,96242.63
2022-12-12T00:09:02.578Z,96247.06
2022-12-12T00:11:31.357Z,96247.90
2022-12-12T00:13:59.410Z,96248.77
2022-12-12T00:16:29.236Z,96249.96
2022-12-12T00:18:57.557Z,96254.40
2022-12-12T00:21:28.205Z,96251.67
2022-12-12T00:23:57.852Z,96248.39
2022-12-12T00:26:29.390Z,96250.27
2022-12-12T00:28:58.976Z,96247.37
2022-12-12T00:31:28.323Z,96247.23
2022-12-12T00:33:56.939Z,96248.94
2022-12-12T00:36:27.457Z,96254.27
2022-12-12T00:38:55.853Z,96259.11
2022-12-12T00:41:24.181Z,96259.30
2022-12-12T00:43:52.147Z,96256.36
2022-12-12T00:46:23.197Z,96254.31
2022-12-12T00:48:55.356Z,96257.39
2022-12-12T00:51:25.178Z,96252.55
2022-12-12T00:53:53.274Z,96257.48
2022-12-12T00:56:22.856Z,96262.10
2022-12-12T00:58:51.498Z,96264.48
2022-12-12T01:01:30.927Z,96265.15
2022-12-12T01:03:59.560Z,96263.58
2022-12-12T01:06:28.815Z,96260.80
2022-12-12T01:08:57.252Z,96262.37
2022-12-12T01:11:26.047Z,96261.70
2022-12-12T01:13:55.385Z,96263.45
2022-12-12T01:16:24.845Z,96265.00
2022-12-12T01:18:53.586Z,96272.42
2022-12-12T01:21:22.274Z,96274.84
2022-12-12T01:23:50.684Z,96273.95
2022-12-12T01:26:22.199Z,96272.25
2022-12-12T01:28:50.849Z,96273.64
2022-12-12T01:31:19.515Z,96273.51
2022-12-12T01:33:47.693Z,96268.02
2022-12-12T01:36:17.747Z,96261.28
2022-12-12T01:38:52.184Z,96260.40
2022-12-12T01:41:21.554Z,96264.52
2022-12-12T01:43:50.068Z,96268.79
2022-12-12T01:46:35.822Z,96269.98
2022-12-12T01:49:11.591Z,96272.55
2022-12-12T01:51:41.116Z,96271.39
2022-12-12T01:54:24.373Z,96264.18
2022-12-12T01:56:55.135Z,96263.65
2022-12-12T01:59:25.890Z,96264.45
2022-12-12T02:01:54.849Z,96264.50
2022-12-12T02:04:23.665Z,96262.46
2022-12-12T02:06:53.082Z,96260.72
2022-12-12T02:09:22.472Z,96257.63
2022-12-12T02:11:53.847Z,96258.64
2022-12-12T02:14:34.653Z,96259.17
2022-12-12T02:17:27.715Z,96262.59
2022-12-12T02:20:19.052Z,96269.83
2022-12-12T02:22:59.191Z,96275.16
2022-12-12T02:25:55.247Z,96281.70
2022-12-12T02:28:45.355Z,96290.80
2022-12-12T02:31:21.615Z,96299.59
2022-12-12T02:33:59.888Z,96302.48
2022-12-12T02:36:43.978Z,96299.88
2022-12-12T02:39:33.299Z,96297.45
2022-12-12T02:42:15.751Z,96291.09
2022-12-12T02:44:59.434Z,96286.59
2022-12-12T02:47:31.575Z,96290.36
2022-12-12T02:50:14.112Z,96283.29
2022-12-12T02:52:43.846Z,96282.61
2022-12-12T02:55:12.453Z,96290.73
2022-12-12T02:57:42.243Z,96300.64
2022-12-12T03:00:18.508Z,96299.44
2022-12-12T03:03:42.442Z,96290.32
2022-12-12T03:07:01.636Z,96287.04
2022-12-12T03:09:57.808Z,96272.27
2022-12-12T03:12:25.796Z,96275.21
2022-12-12T03:15:23.034Z,96266.96
2022-12-12T03:18:10.950Z,96275.91
2022-12-12T03:20:48.966Z,96286.09
2022-12-12T03:23:25.163Z,96286.60
2022-12-12T03:26:07.007Z,96286.79
2022-12-12T03:28:58.967Z,96289.55
2022-12-12T03:31:31.417Z,96295.58
2022-12-12T03:34:05.536Z,96294.00
2022-12-12T03:36:58.054Z,96293.80
2022-12-12T03:39:36.809Z,96294.29
2022-12-12T03:42:21.418Z,96294.94
2022-12-12T03:44:55.875Z,96300.41
2022-12-12T03:47:35.061Z,96292.84
2022-12-12T03:50:19.518Z,96290.23
2022-12-12T03:53:15.398Z,96295.05
2022-12-12T03:55:53.250Z,96293.70
2022-12-12T03:58:32.416Z,96293.52
2022-12-12T04:01:04.643Z,96291.98
2022-12-12T04:03:47.240Z,96290.25
2022-12-12T04:06:27.190Z,96286.30
2022-12-12T04:09:20.331Z,96290.13
2022-12-12T04:12:19.334Z,96296.34
2022-12-12T04:15:09.029Z,96304.11
2022-12-12T04:17:47.364Z,96309.77
2022-12-12T04:20:54.226Z,96307.02
2022-12-12T04:23:59.760Z,96302.55
2022-12-12T04:26:39.733Z,96302.23
2022-12-12T04:29:26.257Z,96308.78
2022-12-12T04:32:09.604Z,96301.73
2022-12-12T04:34:44.471Z,96301.92
2022-12-12T04:37:17.770Z,96298.14
2022-12-12T04:39:50.636Z,96299.50
2022-12-12T04:42:22.668Z,96297.42
2022-12-12T04:44:54.352Z,96305.52
2022-12-12T04:47:24.263Z,96300.88
2022-12-12T04:49:55.716Z,96311.34
2022-12-12T04:52:25.984Z,96304.25
2022-12-12T04:55:03.182Z,96300.77
2022-12-12T04:57:43.190Z,96301.23
2022-12-12T05:00:14.062Z,96305.51
2022-12-12T05:02:48.192Z,96309.10
2022-12-12T05:05:28.599Z,96310.83
2022-12-12T05:08:03.579Z,96310.98
2022-12-12T05:10:32.019Z,96312.88
2022-12-12T05:13:01.640Z,96312.89
2022-12-12T05:15:30.542Z,96318.41
2022-12-12T05:18:09.076Z,96326.34
2022-12-12T05:20:37.868Z,96331.48
2022-12-12T05:23:06.220Z,96334.78
2022-12-12T05:25:34.308Z,96337.69
2022-12-12T05:28:02.721Z,96338.71
2022-12-12T05:30:31.314Z,96330.65
2022-12-12T05:32:59.796Z,96327.91
2022-12-12T05:35:28.422Z,96335.83
2022-12-12T05:37:56.760Z,96342.20
2022-12-12T05:40:25.201Z,96347.68
2022-12-12T05:42:53.527Z,96342.36
2022-12-12T05:45:21.742Z,96342.59
2022-12-12T05:47:49.983Z,96340.91
2022-12-12T05:50:18.338Z,96345.89
2022-12-12T05:52:46.788Z,96342.98
2022-12-12T05:55:15.148Z,96352.26
2022-12-12T05:57:43.527Z,96352.11
2022-12-12T06:00:12.048Z,96352.09
2022-12-12T06:02:40.357Z,96347.77
2022-12-12T06:05:09.551Z,96350.00
2022-12-12T06:07:37.688Z,96356.55
2022-12-12T06:10:06.938Z,96358.80
2022-12-12T06:12:35.946Z,96358.79
2022-12-12T06:15:05.150Z,96360.67
2022-12-12T06:17:33.762Z,96367.73
2022-12-12T06:20:02.859Z,96375.29
2022-12-12T06:22:31.158Z,96373.22
2022-12-12T06:24:59.760Z,96379.75
2022-12-12T06:27:28.358Z,96380.77
2022-12-12T06:29:56.798Z,96383.88
2022-12-12T06:32:25.249Z,96388.71
2022-12-12T06:34:53.994Z,96385.77
2022-12-12T06:37:22.878Z,96385.61
2022-12-12T06:39:51.514Z,96387.15
2022-12-12T06:42:19.655Z,96391.27
2022-12-12T06:44:47.898Z,96391.98
2022-12-12T06:47:16.207Z,96395.59
2022-12-12T06:49:44.323Z,96403.70
2022-12-12T06:52:13.071Z,96405.23
2022-12-12T06:54:41.791Z,96401.44
2022-12-12T06:57:10.732Z,96400.77
2022-12-12T06:59:39.061Z,96404.89
2022-12-12T07:02:07.410Z,96410.56
2022-12-12T07:04:35.729Z,96412.46
2022-12-12T07:07:03.978Z,96420.70
2022-12-12T07:09:32.215Z,96420.69
2022-12-12T07:12:00.771Z,96423.25
2022-12-12T07:14:29.270Z,96415.85
2022-12-12T07:16:58.292Z,96417.03
2022-12-12T07:19:27.756Z,96418.56
2022-12-12T07:21:56.469Z,96413.88
2022-12-12T07:24:24.676Z,96408.01
2022-12-12T07:26:53.304Z,96410.06
2022-12-12T07:29:21.687Z,96409.38
2022-12-12T07:31:49.890Z,96414.90
2022-12-12T07:34:18.426Z,96424.73
2022-12-12T07:36:47.252Z,96424.39
2022-12-12T07:39:20.351Z,96423.86
2022-12-12T07:41:49.619Z,96426.77
2022-12-12T07:44:22.843Z,96432.79
2022-12-12T07:46:51.462Z,96434.67
2022-12-12T07:49:20.831Z,96430.38
2022-12-12T07:51:50.456Z,96433.83
2022-12-12T07:54:19.257Z,96441.05
2022-12-12T07:56:48.215Z,96445.88
2022-12-12T07:59:16.750Z,96446.92
2022-12-12T08:01:46.114Z,96448.48
2022-12-12T08:04:15.177Z,96452.10
2022-12-12T08:06:44.146Z,96460.87
2022-12-12T08:09:12.848Z,96462.08
2022-12-12T08:11:46.038Z,96460.69
2022-12-12T08:14:14.909Z,96459.83
2022-12-12T08:16:43.459Z,96463.42
2022-12-12T08:19:12.277Z,96465.47
2022-12-12T08:21:40.868Z,96467.66
2022-12-12T08:24:13.208Z,96469.85
2022-12-12T08:26:43.550Z,96470.68
2022-12-12T08:29:13.033Z,96470.84
2022-12-12T08:31:41.825Z,96466.91
2022-12-12T08:34:10.636Z,96469.00
2022-12-12T08:36:40.247Z,96471.95
2022-12-12T08:39:12.977Z,96479.73
2022-12-12T08:41:43.778Z,96485.61
2022-12-12T08:44:13.811Z,96488.02
2022-12-12T08:46:42.951Z,96489.55
2022-12-12T08:49:12.657Z,96486.80
2022-12-12T08:51:42.051Z,96488.17
2022-12-12T08:54:13.043Z,96489.89
2022-12-12T08:56:42.143Z,96488.50
2022-12-12T08:59:10.668Z,96489.02
2022-12-12T09:01:39.218Z,96490.21
2022-12-12T09:04:08.051Z,96490.39
2022-12-12T09:06:36.499Z,96493.65
2022-12-12T09:09:05.392Z,96488.66
2022-12-12T09:11:34.243Z,96484.85
2022-12-12T09:14:03.548Z,96480.52
2022-12-12T09:16:33.677Z,96479.81
2022-12-12T09:19:02.903Z,96482.02
2022-12-12T09:21:31.626Z,96485.25
2022-12-12T09:24:00.512Z,96488.13
2022-12-12T09:26:29.388Z,96487.23
2022-12-12T09:28:58.329Z,96477.52
2022-12-12T09:31:27.317Z,96475.91
2022-12-12T09:33:55.830Z,96480.06
2022-12-12T09:36:24.960Z,96474.30
2022-12-12T09:38:53.672Z,96475.00
2022-12-12T09:41:30.835Z,96476.03
2022-12-12T09:44:19.076Z,96477.91
2022-12-12T09:46:51.648Z,96479.56
2022-12-12T09:49:39.864Z,96477.98
2022-12-12T09:52:17.876Z,96477.77
2022-12-12T09:54:46.342Z,96479.44
2022-12-12T09:57:40.874Z,96480.64
2022-12-12T10:00:14.192Z,96483.54
2022-12-12T10:03:13.944Z,96484.88
2022-12-12T10:06:07.446Z,96487.46
2022-12-12T10:09:01.799Z,96481.73
2022-12-12T10:11:54.646Z,96476.40
2022-12-12T10:14:38.964Z,96480.14
2022-12-12T10:17:16.887Z,96475.63
2022-12-12T10:20:16.926Z,96472.54
2022-12-12T10:22:52.473Z,96473.77
2022-12-12T10:25:42.327Z,96475.20
2022-12-12T10:28:14.135Z,96477.39
2022-12-12T10:30:55.407Z,96475.38
2022-12-12T10:33:30.102Z,96478.17
2022-12-12T10:36:33.330Z,96482.71
2022-12-12T10:39:14.466Z,96485.52
2022-12-12T10:42:01.052Z,96485.73
2022-12-12T10:44:54.047Z,96482.16
2022-12-12T10:47:24.930Z,96477.86
2022-12-12T10:50:14.841Z,96478.37
2022-12-12T10:52:43.942Z,96479.20
2022-12-12T10:55:41.074Z,96477.14
2022-12-12T10:58:14.160Z,96481.44
2022-12-12T11:00:47.462Z,96487.91
2022-12-12T11:03:31.620Z,96492.19
2022-12-12T11:06:05.312Z,96491.28
2022-12-12T11:08:36.115Z,96488.13
2022-12-12T11:11:21.893Z,96485.17
2022-12-12T11:13:51.766Z,96490.34
2022-12-12T11:16:22.859Z,96497.77
2022-12-12T11:18:58.473Z,96501.76
2022-12-12T11:21:29.299Z,96502.83
2022-12-12T11:23:59.788Z,96504.39
2022-12-12T11:26:30.963Z,96507.48
2022-12-12T11:29:03.497Z,96506.98
2022-12-12T11:31:35.659Z,96509.90
2022-12-12T11:34:07.690Z,96514.91
2022-12-12T11:36:42.183Z,96516.61
2022-12-12T11:39:21.563Z,96520.41
2022-12-12T11:42:02.287Z,96523.52
2022-12-12T11:44:37.340Z,96529.70
2022-12-12T11:47:26.902Z,96530.20
2022-12-12T11:49:59.261Z,96532.07
2022-12-12T11:52:31.549Z,96534.79
2022-12-12T11:55:01.229Z,96533.39
2022-12-12T11:58:18.044Z,96528.89
2022-12-12T12:01:03.342Z,96530.08
2022-12-12T12:03:51.279Z,96533.52
2022-12-12T12:06:31.761Z,96536.96
2022-12-12T12:09:26.247Z,96536.79
2022-12-12T12:12:23.189Z,96540.06
2022-12-12T12:14:57.883Z,96540.95
2022-12-12T12:17:40.425Z,96543.59
2022-12-12T12:20:33.806Z,96547.77
2022-12-12T12:23:16.396Z,96553.30
2022-12-12T12:26:10.636Z,96554.48
2022-12-12T12:28:42.269Z,96558.11
2022-12-12T12:31:41.114Z,96558.11
2022-12-12T12:34:21.515Z,96554.81
2022-12-12T12:37:14.807Z,96555.45
2022-12-12T12:40:10.575Z,96554.55
2022-12-12T12:43:00.540Z,96554.86
2022-12-12T12:45:45.698Z,96551.24
2022-12-12T12:48:37.466Z,96560.04
2022-12-12T12:51:13.679Z,96558.20
2022-12-12T12:54:07.245Z,96560.84
2022-12-12T12:56:44.306Z,96561.73
2022-12-12T12:59:21.498Z,96561.92
2022-12-12T13:01:53.626Z,96561.73
2022-12-12T13:04:42.322Z,96563.08
2022-12-12T13:07:28.237Z,96565.16
2022-12-12T13:10:18.142Z,96569.46
2022-12-12T13:13:00.165Z,96567.90
2022-12-12T13:15:40.868Z,96566.50
2022-12-12T13:18:18.031Z,96569.58
2022-12-12T13:20:58.083Z,96565.25
2022-12-12T13:23:29.782Z,96564.92
2022-12-12T13:26:06.554Z,96568.57
2022-12-12T13:28:45.802Z,96569.26
2022-12-12T13:31:36.312Z,96569.96
2022-12-12T13:34:07.374Z,96572.94
2022-12-12T13:36:40.066Z,96570.73
2022-12-12T13:39:27.904Z,96578.17
2022-12-12T13:42:02.853Z,96576.11
2022-12-12T13:44:45.164Z,96574.06
2022-12-12T13:47:36.194Z,96579.39
2022-12-12T13:50:11.965Z,96585.23
2022-12-12T13:52:44.263Z,96591.08
2022-12-12T13:55:18.715Z,96596.41
2022-12-12T13:57:59.419Z,96593.48
2022-12-12T14:00:39.114Z,96601.07
2022-12-12T14:03:11.129Z,96594.90
2022-12-12T14:05:46.530Z,96597.52
2022-12-12T14:08:16.390Z,96602.18
2022-12-12T14:10:53.009Z,96602.70
2022-12-12T14:13:24.536Z,96602.17
2022-12-12T14:15:56.041Z,96608.23
2022-12-12T14:18:54.290Z,96615.32
2022-12-12T14:21:47.916Z,96619.11
2022-12-12T14:24:34.912Z,96620.33
2022-12-12T14:27:07.796Z,96621.88
2022-12-12T14:29:46.177Z,96624.29
2022-12-12T14:32:37.555Z,96622.05
2022-12-12T14:35:24.398Z,96628.23
2022-12-12T14:38:09.656Z,96625.13
2022-12-12T14:40:44.803Z,96625.48
2022-12-12T14:43:24.811Z,96624.63
2022-12-12T14:45:58.488Z,96623.43
2022-12-12T14:48:36.540Z,96629.82
2022-12-12T14:51:29.267Z,96633.61
2022-12-12T14:54:00.827Z,96633.63
2022-12-12T14:56:59.243Z,96640.00
2022-12-12T14:59:34.374Z,96641.39
2022-12-12T15:02:33.353Z,96649.65
2022-12-12T15:05:06.058Z,96657.21
2022-12-12T15:07:38.413Z,96658.23
2022-12-12T15:10:29.504Z,96661.86
2022-12-12T15:12:58.595Z,96661.67
2022-12-12T15:15:33.731Z,96664.59
2022-12-12T15:18:02.900Z,96667.17
2022-12-12T15:20:32.576Z,96668.70
2022-12-12T15:23:04.522Z,96673.33
2022-12-12T15:25:41.132Z,96677.61
2022-12-12T15:28:19.272Z,96679.83
2022-12-12T15:30:57.653Z,96681.04
2022-12-12T15:33:28.945Z,96678.80
2022-12-12T15:36:05.445Z,96683.24
2022-12-12T15:38:34.792Z,96683.38
2022-12-12T15:41:12.980Z,96687.45
2022-12-12T15:43:43.479Z,96689.34
2022-12-12T15:46:15.244Z,96692.40
2022-12-12T15:48:46.147Z,96695.48
2022-12-12T15:51:21.126Z,96693.92
2022-12-12T15:53:55.591Z,96696.98
2022-12-12T15:56:29.520Z,96701.57
2022-12-12T15:59:05.219Z,96704.61
2022-12-12T16:01:34.514Z,96706.14
2022-12-12T16:04:06.857Z,96709.73
2022-12-12T16:06:49.212Z,96714.00
2022-12-12T16:09:24.619Z,96714.29
2022-12-12T16:11:54.512Z,96714.79
2022-12-12T16:14:39.056Z,96719.02
2022-12-12T16:17:17.856Z,96720.39
2022-12-12T16:20:07.478Z,96723.60
2022-12-12T16:22:45.219Z,96728.59
2022-12-12T16:25:29.514Z,96729.77
2022-12-12T16:28:07.778Z,96731.97
2022-12-12T16:30:38.917Z,96736.91
2022-12-12T16:33:30.989Z,96742.92
2022-12-12T16:36:01.206Z,96751.67
2022-12-12T16:38:30.375Z,96753.60
2022-12-12T16:41:05.731Z,96758.13
2022-12-12T16:43:35.121Z,96759.61
2022-12-12T16:46:03.971Z,96760.41
2022-12-12T16:48:37.891Z,96770.39
2022-12-12T16:51:09.332Z,96775.63
2022-12-12T16:53:38.668Z,96775.94
2022-12-12T16:56:08.425Z,96774.16
2022-12-12T16:58:37.477Z,96778.77
2022-12-12T17:01:06.968Z,96781.80
2022-12-12T17:03:36.284Z,96785.86
2022-12-12T17:06:05.173Z,96788.55
2022-12-12T17:08:34.014Z,96793.65
2022-12-12T17:11:10.688Z,96794.52
2022-12-12T17:13:48.366Z,96804.27
2022-12-12T17:16:21.407Z,96809.13
2022-12-12T17:18:53.612Z,96811.00
2022-12-12T17:21:22.640Z,96807.77
2022-12-12T17:23:51.119Z,96815.40
2022-12-12T17:26:19.699Z,96818.69
2022-12-12T17:28:48.085Z,96827.35
2022-12-12T17:31:16.838Z,96827.93
2022-12-12T17:33:50.957Z,96833.66
2022-12-12T17:36:20.185Z,96843.33
2022-12-12T17:38:49.646Z,96848.41
2022-12-12T17:41:18.107Z,96852.80
2022-12-12T17:43:52.058Z,96849.92
2022-12-12T17:46:25.505Z,96848.38
2022-12-12T17:48:56.811Z,96846.77
2022-12-12T17:51:25.970Z,96846.05
2022-12-12T17:53:55.318Z,96845.58
2022-12-12T17:56:25.293Z,96857.31
2022-12-12T17:58:54.810Z,96855.15
2022-12-12T18:01:27.753Z,96855.39
2022-12-12T18:03:56.582Z,96858.50
2022-12-12T18:06:26.678Z,96859.92
2022-12-12T18:08:55.074Z,96862.34
2022-12-12T18:11:31.732Z,96860.25
2022-12-12T18:14:02.290Z,96861.73
2022-12-12T18:16:32.434Z,96864.55
2022-12-12T18:19:01.365Z,96863.49
2022-12-12T18:24:22.516Z,96867.79
2022-12-12T18:26:54.279Z,96871.95
2022-12-12T18:29:23.457Z,96881.23
2022-12-12T18:31:52.845Z,96886.77
2022-12-12T18:34:21.418Z,96893.54
2022-12-12T18:36:50.075Z,96902.75
2022-12-12T18:39:18.469Z,96905.10
2022-12-12T18:41:46.746Z,96906.45
2022-12-12T18:44:16.741Z,96911.88
2022-12-12T18:46:46.022Z,96918.16
2022-12-12T18:49:15.976Z,96922.77
2022-12-12T18:51:46.575Z,96926.11
2022-12-12T18:54:16.580Z,96931.67
2022-12-12T18:56:46.314Z,96932.52
2022-12-12T18:59:15.816Z,96932.85
2022-12-12T19:01:45.070Z,96933.17
2022-12-12T19:04:19.104Z,96940.36
2022-12-12T19:06:49.964Z,96938.91
2022-12-12T19:09:20.137Z,96940.56
2022-12-12T19:11:55.561Z,96943.07
2022-12-12T19:14:35.654Z,96941.15
2022-12-12T19:17:09.279Z,96940.78
2022-12-12T19:19:37.755Z,96941.29
2022-12-12T19:22:18.712Z,96940.55
2022-12-12T19:24:55.852Z,96945.26
2022-12-12T19:27:26.401Z,96950.25
2022-12-12T19:29:56.112Z,96953.89
2022-12-12T19:32:24.877Z,96952.28
2022-12-12T19:34:53.604Z,96951.52
2022-12-12T19:37:23.277Z,96955.42
2022-12-12T19:39:53.134Z,96960.86
2022-12-12T19:42:21.863Z,96964.63
2022-12-12T19:44:50.547Z,96967.81
2022-12-12T19:47:19.329Z,96968.42
2022-12-12T19:49:50.009Z,96971.56
2022-12-12T19:52:19.805Z,96975.27
2022-12-12T19:54:48.437Z,96976.49
2022-12-12T19:57:17.119Z,96979.40
2022-12-12T19:59:45.424Z,96979.86
2022-12-12T20:02:13.538Z,96984.01
2022-12-12T20:04:41.818Z,96983.39
2022-12-12T20:07:09.939Z,96983.27
2022-12-12T20:09:38.121Z,96985.19
2022-12-12T20:12:06.619Z,96988.99
2022-12-12T20:14:35.603Z,96985.75
2022-12-12T20:17:03.898Z,96986.81
2022-12-12T20:19:32.156Z,96990.59
2022-12-12T20:22:01.605Z,96992.32
2022-12-12T20:24:32.669Z,96995.41
2022-12-12T20:27:03.870Z,96994.20
2022-12-12T20:29:32.822Z,96992.81
2022-12-12T20:32:01.866Z,96996.02
2022-12-12T20:34:30.289Z,96997.02
2022-12-12T20:36:58.933Z,96996.30
2022-12-12T20:39:27.180Z,96998.98
2022-12-12T20:41:56.840Z,97003.88
2022-12-12T20:44:31.498Z,97001.76
2022-12-12T20:47:01.118Z,97002.35
2022-12-12T20:49:30.315Z,97003.30
2022-12-12T20:51:59.570Z,97012.60
2022-12-12T20:54:29.758Z,97012.30
2022-12-12T20:56:59.000Z,97012.86
2022-12-12T20:59:27.638Z,97014.46
2022-12-12T21:01:55.950Z,97017.44
2022-12-12T21:04:24.469Z,97019.09
2022-12-12T21:06:53.158Z,97020.90
2022-12-12T21:09:25.753Z,97020.13
2022-12-12T21:11:58.594Z,97019.16
2022-12-12T21:14:30.927Z,97022.81
2022-12-12T21:16:59.723Z,97028.81
2022-12-12T21:19:28.295Z,97029.91
2022-12-12T21:21:56.833Z,97030.87
2022-12-12T21:24:25.137Z,97033.33
2022-12-12T21:26:53.347Z,97035.43
2022-12-12T21:29:21.432Z,97034.64
2022-12-12T21:31:52.102Z,97028.33
2022-12-12T21:34:23.840Z,97026.52
2022-12-12T21:36:56.367Z,97021.78
2022-12-12T21:39:27.214Z,97020.80
2022-12-12T21:41:56.628Z,97025.13
2022-12-12T21:44:25.788Z,97030.36
2022-12-12T21:46:54.452Z,97028.55
2022-12-12T21:49:28.760Z,97032.00
2022-12-12T21:52:02.581Z,97027.80
2022-12-12T21:54:31.514Z,97027.16
2022-12-12T21:57:01.054Z,97021.39
2022-12-12T21:59:29.611Z,97021.08
2022-12-12T22:01:59.742Z,97021.61
2022-12-12T22:04:28.622Z,97024.41
2022-12-12T22:06:57.474Z,97027.05
2022-12-12T22:09:27.113Z,97031.73
2022-12-12T22:12:03.133Z,97035.73
2022-12-12T22:14:34.264Z,97039.08
2022-12-12T22:17:04.204Z,97040.45
2022-12-12T22:19:32.607Z,97032.66
2022-12-12T22:22:00.921Z,97034.52
2022-12-12T22:24:28.978Z,97035.73
2022-12-12T22:26:57.235Z,97034.27
2022-12-12T22:29:25.465Z,97034.54
2022-12-12T22:31:53.697Z,97037.73
2022-12-12T22:34:23.972Z,97037.14
2022-12-12T22:36:52.802Z,97032.96
2022-12-12T22:39:26.077Z,97036.92
2022-12-12T22:41:55.868Z,97038.75
2022-12-12T22:44:25.364Z,97031.48
2022-12-12T22:46:55.033Z,97031.23
2022-12-12T22:49:27.823Z,97028.52
2022-12-12T22:51:57.649Z,97033.48
2022-12-12T22:54:26.862Z,97036.27
2022-12-12T22:56:55.128Z,97038.62
2022-12-12T22:59:25.386Z,97038.57
2022-12-12T23:01:53.908Z,97032.86
2022-12-12T23:04:22.073Z,97034.53
2022-12-12T23:06:50.003Z,97033.63
2022-12-12T23:09:22.992Z,97035.80
2022-12-12T23:11:51.271Z,97033.50
2022-12-12T23:14:22.823Z,97031.73
2022-12-12T23:16:51.653Z,97025.59
2022-12-12T23:19:25.792Z,97023.36
2022-12-12T23:21:54.495Z,97026.91
2022-12-12T23:24:22.432Z,97028.23
2022-12-12T23:26:51.764Z,97026.81
2022-12-12T23:29:21.094Z,97032.77
2022-12-12T23:31:49.583Z,97031.26
2022-12-12T23:34:22.964Z,97031.29
2022-12-12T23:36:52.752Z,97036.48
2022-12-12T23:39:21.898Z,97043.52
2022-12-12T23:41:50.050Z,97043.22
2022-12-12T23:44:19.866Z,97038.38
2022-12-12T23:46:48.625Z,97039.16
2022-12-12T23:49:23.040Z,97041.14
2022-12-12T23:51:56.662Z,97041.92
2022-12-12T23:54:28.026Z,97044.91
2022-12-12T23:56:56.225Z,97045.14
2022-12-12T23:59:26.235Z,97047.06
